Time;durP1;ratioP1;P1;durP2;ratioP2;P2;SDS_P1;SDS_P2;PMS_P1;PMS_P2;Temp;Humidity;BMP_temperature;BMP_pressure;BME280_temperature;BME280_humidity;BME280_pressure;Samples;Min_cycle;Max_cycle;Signal;HPM_P1;HPM_P2
2022/07/26 00:01:17;;;;;;;;;1.00;1.00;;;;;20.34;52.78;99597.66;5097405;28;8850;-62
2022/07/26 00:03:45;;;;;;;;;0.40;0.40;;;;;20.36;52.54;99592.06;5115886;28;8921;-62
2022/07/26 00:06:13;;;;;;;;;0.60;0.60;;;;;20.37;52.56;99591.88;5116317;28;8836;-62
2022/07/26 00:08:41;;;;;;;;;1.40;1.00;;;;;20.38;52.28;99598.97;5119167;28;8850;-61
2022/07/26 00:11:09;;;;;;;;;0.80;0.00;;;;;20.39;52.22;99592.50;5120457;28;9588;-62
2022/07/26 00:13:36;;;;;;;;;0.60;0.40;;;;;20.41;52.16;99601.25;5118359;28;8835;-62
2022/07/26 00:16:04;;;;;;;;;1.00;1.00;;;;;20.41;52.49;99587.72;5119031;28;8836;-62
2022/07/26 00:18:32;;;;;;;;;1.20;1.20;;;;;20.42;52.05;99586.75;5120538;28;8841;-62
2022/07/26 00:21:00;;;;;;;;;1.00;1.00;;;;;20.42;52.46;99592.16;5120621;28;8962;-62
2022/07/26 00:23:28;;;;;;;;;0.60;0.60;;;;;20.43;52.66;99580.28;5120084;28;8831;-62
2022/07/26 00:26:02;;;;;;;;;1.60;1.60;;;;;20.43;51.91;99588.41;5120388;27;8921;-62
2022/07/26 00:28:54;;;;;;;;;2.00;1.00;;;;;20.43;52.66;99588.41;5130817;27;8825;-62
2022/07/26 00:31:21;;;;;;;;;2.00;1.00;;;;;20.44;52.67;99575.69;5140443;27;8862;-62
2022/07/26 00:33:49;;;;;;;;;1.00;1.00;;;;;20.44;52.42;99584.66;5140524;27;8841;-62
2022/07/26 00:36:17;;;;;;;;;1.00;1.00;;;;;20.45;52.62;99578.22;5140922;27;8836;-62
2022/07/26 00:38:45;;;;;;;;;1.60;1.00;;;;;20.44;52.32;99592.78;5140763;27;8961;-61
2022/07/26 00:41:13;;;;;;;;;0.40;0.40;;;;;20.44;52.58;99583.81;5140493;27;8810;-62
2022/07/26 00:43:41;;;;;;;;;1.60;1.60;;;;;20.43;52.68;99593.81;5140240;27;8922;-62
2022/07/26 00:46:08;;;;;;;;;1.00;1.00;;;;;20.43;52.42;99596.53;5140562;27;8856;-62
2022/07/26 00:48:36;;;;;;;;;1.60;1.20;;;;;20.41;52.55;99589.63;5140480;27;8821;-62
2022/07/26 00:51:04;;;;;;;;;2.00;1.00;;;;;20.39;52.63;99592.50;5140455;27;8842;-62
2022/07/26 00:53:32;;;;;;;;;1.00;1.00;;;;;20.37;52.77;99591.88;5140067;27;8813;-62
2022/07/26 00:56:00;;;;;;;;;1.00;1.00;;;;;20.36;52.73;99594.75;5139856;27;8930;-62
2022/07/26 00:58:28;;;;;;;;;1.20;1.00;;;;;20.36;52.72;99606.44;5130623;27;9830;-62
2022/07/26 01:00:55;;;;;;;;;1.80;1.80;;;;;20.34;53.01;99596.84;5117726;28;8847;-62
2022/07/26 01:03:23;;;;;;;;;0.20;0.20;;;;;20.30;52.76;99607.19;5119743;28;8853;-62
2022/07/26 01:05:56;;;;;;;;;1.00;1.00;;;;;20.26;53.25;99592.38;5119334;28;8958;-62
2022/07/26 01:08:24;;;;;;;;;2.00;2.00;;;;;20.20;53.34;99595.00;5119440;28;9521;-62
2022/07/26 01:10:52;;;;;;;;;1.80;1.80;;;;;20.13;53.59;99600.34;5117430;28;8848;-61
2022/07/26 01:13:20;;;;;;;;;1.80;1.80;;;;;20.04;53.81;99593.34;5117523;28;8986;-62
2022/07/26 01:15:48;;;;;;;;;1.00;1.00;;;;;19.97;53.96;99594.31;5117861;28;8966;-62
2022/07/26 01:18:16;;;;;;;;;2.00;1.60;;;;;19.90;53.82;99591.53;5118707;28;8908;-62
2022/07/26 01:20:43;;;;;;;;;1.20;1.20;;;;;19.83;54.49;99593.31;5117819;28;8962;-62
2022/07/26 01:23:11;;;;;;;;;1.00;1.00;;;;;19.76;54.18;99592.38;5119456;28;9826;-62
2022/07/26 01:25:39;;;;;;;;;1.80;1.60;;;;;19.70;54.84;99592.28;5123407;27;8822;-61
2022/07/26 01:28:10;;;;;;;;;1.60;1.00;;;;;19.64;55.00;99599.28;5137798;27;8950;-62
2022/07/26 01:30:46;;;;;;;;;1.00;1.00;;;;;19.58;54.83;99594.63;5137214;27;8865;-62
2022/07/26 01:33:14;;;;;;;;;1.00;1.00;;;;;19.52;54.75;99594.56;5138739;27;8968;-62
2022/07/26 01:35:42;;;;;;;;;1.00;1.00;;;;;19.47;55.50;99589.72;5139444;27;8833;-62
2022/07/26 01:38:10;;;;;;;;;1.00;1.00;;;;;19.42;55.41;99594.81;5138798;27;9784;-62
2022/07/26 01:40:38;;;;;;;;;4.20;1.80;;;;;19.38;55.45;99598.94;5139564;27;8834;-62
2022/07/26 01:43:05;;;;;;;;;1.20;1.00;;;;;19.34;55.89;99597.63;5135879;27;8974;-62
2022/07/26 01:45:33;;;;;;;;;1.00;1.00;;;;;19.29;55.47;99599.22;5138854;27;8956;-61
2022/07/26 01:48:01;;;;;;;;;3.20;2.40;;;;;19.24;55.34;99602.47;5138358;27;8829;-62
2022/07/26 01:50:29;;;;;;;;;1.00;1.00;;;;;19.18;55.88;99608.56;5138813;27;8864;-62
2022/07/26 01:52:56;;;;;;;;;0.20;0.20;;;;;19.12;56.06;99606.59;5139011;27;8818;-62
2022/07/26 01:55:24;;;;;;;;;3.00;3.00;;;;;19.08;56.11;99615.25;5139014;27;8852;-62
2022/07/26 01:57:53;;;;;;;;;1.40;1.40;;;;;19.02;56.14;99613.28;5138686;27;8846;-60
2022/07/26 02:00:21;;;;;;;;;1.80;1.00;;;;;18.97;56.31;99611.13;5137615;27;9638;-60
2022/07/26 02:02:49;;;;;;;;;1.20;1.20;;;;;18.94;56.58;99613.38;5138327;27;8864;-60
2022/07/26 02:05:16;;;;;;;;;3.00;3.00;;;;;18.91;56.27;99613.75;5138514;27;8983;-61
2022/07/26 02:07:44;;;;;;;;;2.40;1.00;;;;;18.86;56.87;99614.28;5138357;27;8829;-60
2022/07/26 02:10:12;;;;;;;;;1.00;1.00;;;;;18.85;56.78;99618.00;5138251;27;8830;-60
2022/07/26 02:12:40;;;;;;;;;1.00;1.00;;;;;18.85;56.76;99625.25;5137965;27;8830;-61
2022/07/26 02:15:09;;;;;;;;;3.00;3.00;;;;;18.86;56.63;99618.84;5118575;27;8836;-61
2022/07/26 02:17:37;;;;;;;;;1.00;1.00;;;;;18.88;56.68;99625.72;5118338;28;8917;-62
2022/07/26 02:20:05;;;;;;;;;1.80;1.80;;;;;18.92;56.30;99623.50;5117635;28;8870;-62
2022/07/26 02:22:33;;;;;;;;;0.60;0.60;;;;;18.94;56.71;99629.56;5118500;28;8815;-62
2022/07/26 02:25:01;;;;;;;;;1.00;1.00;;;;;18.96;56.41;99630.25;5118165;28;8839;-62
2022/07/26 02:27:32;;;;;;;;;2.60;2.60;;;;;18.99;56.66;99627.16;5118116;28;9482;-62
2022/07/26 02:30:00;;;;;;;;;2.20;2.20;;;;;19.02;56.85;99624.94;5117159;28;8851;-62
2022/07/26 02:32:28;;;;;;;;;3.00;3.00;;;;;19.08;56.58;99623.34;5105008;28;8841;-62
2022/07/26 02:34:56;;;;;;;;;1.00;1.00;;;;;19.10;56.96;99624.84;5098591;28;8984;-61
2022/07/26 02:37:25;;;;;;;;;3.00;3.00;;;;;19.12;56.79;99616.56;5096792;28;8822;-62
2022/07/26 02:39:53;;;;;;;;;3.00;3.00;;;;;19.13;56.72;99620.94;5096765;28;8977;-61
2022/07/26 02:42:20;;;;;;;;;1.00;1.00;;;;;19.15;57.13;99622.44;5096196;28;8908;-61
2022/07/26 02:44:48;;;;;;;;;3.40;3.00;;;;;19.15;56.88;99625.16;5110928;28;9612;-61
2022/07/26 02:47:17;;;;;;;;;2.80;2.80;;;;;19.17;57.15;99625.78;5116321;28;8954;-61
2022/07/26 02:49:44;;;;;;;;;1.20;1.20;;;;;19.20;57.20;99633.53;5116981;28;9611;-61
2022/07/26 02:52:12;;;;;;;;;3.00;1.60;;;;;19.20;57.08;99633.53;5117091;28;8834;-61
2022/07/26 02:54:40;;;;;;;;;3.00;3.00;;;;;19.22;56.85;99636.94;5117364;28;8971;-61
2022/07/26 02:57:08;;;;;;;;;4.80;4.40;;;;;19.23;57.06;99633.19;5116986;28;8916;-62
2022/07/26 02:59:35;;;;;;;;;3.00;3.00;;;;;19.25;56.65;99628.44;5116223;28;8870;-62
2022/07/26 03:02:03;;;;;;;;;2.60;2.60;;;;;19.27;56.62;99633.66;5117275;28;8970;-61
2022/07/26 03:04:31;;;;;;;;;1.00;1.00;;;;;19.27;56.65;99631.78;5117304;28;8832;-62
2022/07/26 03:07:00;;;;;;;;;3.60;3.40;;;;;19.28;56.71;99630.75;5116951;28;8827;-62
2022/07/26 03:09:28;;;;;;;;;2.20;2.20;;;;;19.26;56.96;99632.81;5116859;28;8832;-61
2022/07/26 03:11:56;;;;;;;;;3.40;3.20;;;;;19.26;57.34;99627.41;5116692;28;8844;-61
2022/07/26 03:14:24;;;;;;;;;3.20;3.00;;;;;19.25;57.53;99623.03;5100130;28;8932;-61
2022/07/26 03:16:54;;;;;;;;;1.20;1.20;;;;;19.24;57.46;99618.66;5096941;28;8915;-61
2022/07/26 03:19:22;;;;;;;;;1.00;0.60;;;;;19.23;57.39;99633.19;5096445;28;8826;-61
2022/07/26 03:21:50;;;;;;;;;1.60;1.60;;;;;19.23;57.60;99635.03;5096398;28;8848;-61
2022/07/26 03:24:17;;;;;;;;;1.00;1.00;;;;;19.23;57.37;99633.19;5095442;28;8834;-61
2022/07/26 03:26:46;;;;;;;;;1.00;1.00;;;;;19.24;57.84;99640.28;5094718;28;8841;-62
2022/07/26 03:29:13;;;;;;;;;3.00;3.00;;;;;19.26;57.77;99634.69;5094519;28;8972;-61
2022/07/26 03:31:41;;;;;;;;;3.00;3.00;;;;;19.27;57.99;99629.09;5094177;28;8854;-61
2022/07/26 03:34:09;;;;;;;;;4.00;4.00;;;;;19.28;58.17;99638.88;5094568;28;8834;-61
2022/07/26 03:36:37;;;;;;;;;0.00;0.00;;;;;19.28;57.74;99633.47;5095778;28;8849;-61
2022/07/26 03:39:05;;;;;;;;;2.40;1.00;;;;;19.29;57.60;99645.97;5095826;28;8960;-61
2022/07/26 03:41:33;;;;;;;;;1.40;1.00;;;;;19.29;57.96;99637.88;5095747;28;8849;-61
2022/07/26 03:44:00;;;;;;;;;4.00;4.00;;;;;19.31;57.72;99641.22;5107758;28;8816;-62
2022/07/26 03:46:29;;;;;;;;;3.00;1.00;;;;;19.32;57.63;99640.19;5114667;28;8824;-64
2022/07/26 03:48:56;;;;;;;;;2.80;2.20;;;;;19.34;57.57;99640.00;5114412;28;8861;-61
2022/07/26 03:51:25;;;;;;;;;3.00;3.00;;;;;19.35;57.75;99650.59;5095708;28;8840;-62
2022/07/26 03:53:52;;;;;;;;;3.00;3.00;;;;;19.36;57.54;99648.75;5115455;28;8834;-61
2022/07/26 03:56:31;;;;;;;;;2.00;2.00;;;;;19.37;57.56;99651.28;5116394;28;9489;-62
2022/07/26 03:58:58;;;;;;;;;3.00;2.40;;;;;19.37;57.83;99655.84;5115888;28;8835;-61
2022/07/26 04:01:25;;;;;;;;;3.00;3.00;;;;;19.34;58.04;99648.94;5116470;28;8836;-61
2022/07/26 04:03:53;;;;;;;;;3.80;3.00;;;;;19.30;58.17;99654.91;5115713;28;8851;-61
2022/07/26 04:06:21;;;;;;;;;3.00;2.20;;;;;19.12;58.65;99657.91;5115378;28;8820;-61
2022/07/26 04:08:52;;;;;;;;;3.40;3.40;;;;;18.79;59.48;99661.91;5115391;28;8835;-62
2022/07/26 04:11:19;;;;;;;;;3.00;3.00;;;;;18.52;60.77;99658.91;5115374;28;8831;-61
2022/07/26 04:13:48;;;;;;;;;3.00;3.00;;;;;18.33;60.69;99660.22;5101619;28;8826;-61
2022/07/26 04:16:15;;;;;;;;;4.00;4.00;;;;;18.29;61.20;99669.63;5094421;28;8845;-61
2022/07/26 04:18:43;;;;;;;;;1.00;1.00;;;;;18.33;61.04;99664.75;5094798;28;8846;-62
2022/07/26 04:21:11;;;;;;;;;1.40;1.00;;;;;18.38;60.97;99665.91;5094440;28;8952;-62
2022/07/26 04:23:39;;;;;;;;;2.80;2.60;;;;;18.43;60.45;99668.91;5094651;28;8860;-62
2022/07/26 04:26:07;;;;;;;;;4.00;4.00;;;;;18.46;60.37;99671.28;5095252;28;8844;-61
2022/07/26 04:28:35;;;;;;;;;1.00;1.00;;;;;18.48;60.53;99674.63;5095714;28;8834;-64
2022/07/26 04:31:03;;;;;;;;;2.60;2.60;;;;;18.49;60.54;99670.91;5095091;28;8854;-61
2022/07/26 04:33:31;;;;;;;;;1.00;1.00;;;;;18.51;60.24;99678.81;5095562;28;8822;-62
2022/07/26 04:35:59;;;;;;;;;3.60;1.80;;;;;18.52;60.36;99683.19;5095612;28;8950;-61
2022/07/26 04:38:27;;;;;;;;;3.00;1.40;;;;;18.52;60.66;99680.50;5095208;28;8961;-61
2022/07/26 04:40:56;;;;;;;;;1.00;1.00;;;;;18.47;61.03;99683.72;5094933;28;8860;-61
2022/07/26 04:43:24;;;;;;;;;3.40;3.40;;;;;18.41;60.93;99681.75;5103804;28;8824;-61
2022/07/26 04:45:52;;;;;;;;;5.60;5.60;;;;;18.40;61.39;99682.75;5115052;28;8812;-61
2022/07/26 04:48:19;;;;;;;;;3.00;2.20;;;;;18.40;61.05;99684.59;5114650;28;8916;-61
2022/07/26 04:50:47;;;;;;;;;2.20;2.20;;;;;18.34;61.33;99696.94;5114442;28;8986;-61
2022/07/26 04:53:15;;;;;;;;;4.00;3.40;;;;;18.14;62.22;99690.28;5114393;28;8871;-63
2022/07/26 04:55:43;;;;;;;;;0.80;0.80;;;;;18.05;62.25;99695.88;5118506;28;8832;-62
2022/07/26 04:58:11;;;;;;;;;3.00;3.00;;;;;17.95;62.45;99693.41;5119061;28;9576;-62
2022/07/26 05:00:38;;;;;;;;;3.40;3.40;;;;;17.84;62.90;99699.16;5119450;28;8978;-61
2022/07/26 05:03:26;;;;;;;;;3.60;3.00;;;;;17.78;63.29;99697.16;5118821;28;8851;-61
2022/07/26 05:05:54;;;;;;;;;3.00;3.00;;;;;17.76;62.95;99699.19;5118890;28;8973;-61
2022/07/26 05:08:22;;;;;;;;;3.20;3.00;;;;;17.76;63.04;99696.50;5119093;28;8835;-62
2022/07/26 05:10:49;;;;;;;;;4.80;4.80;;;;;17.80;63.04;99703.22;5118585;28;8828;-62
2022/07/26 05:13:22;;;;;;;;;5.60;4.00;;;;;17.73;63.18;99714.84;5105359;28;9503;-62
2022/07/26 05:15:57;;;;;;;;;3.80;3.20;;;;;17.60;63.42;99715.41;5098482;28;8838;-62
2022/07/26 05:18:25;;;;;;;;;4.00;4.00;;;;;17.53;63.72;99714.41;5098681;28;8857;-63
2022/07/26 05:20:53;;;;;;;;;4.20;3.80;;;;;17.49;63.60;99710.38;5098687;28;8927;-61
2022/07/26 05:23:20;;;;;;;;;4.20;3.80;;;;;17.44;63.63;99711.88;5098276;28;8826;-61
2022/07/26 05:25:48;;;;;;;;;5.60;4.00;;;;;17.41;64.10;99712.25;5098528;28;8842;-62
2022/07/26 05:28:16;;;;;;;;;5.80;5.40;;;;;17.39;64.05;99712.41;5098170;28;9606;-62
2022/07/26 05:30:44;;;;;;;;;3.80;3.40;;;;;17.40;64.60;99708.69;5098035;28;8872;-63
2022/07/26 05:33:12;;;;;;;;;3.00;3.00;;;;;17.40;64.07;99707.88;5097932;28;8830;-62
2022/07/26 05:35:43;;;;;;;;;4.00;3.80;;;;;17.40;63.66;99697.09;5098359;28;8833;-62
2022/07/26 05:38:11;;;;;;;;;3.80;3.80;;;;;17.45;64.11;99698.25;5097316;28;9853;-62
2022/07/26 05:40:39;;;;;;;;;3.60;3.60;;;;;17.51;64.43;99705.66;5098026;28;8934;-63
2022/07/26 05:43:06;;;;;;;;;4.00;3.00;;;;;17.60;63.70;99703.81;5107938;28;9532;-62
2022/07/26 05:45:34;;;;;;;;;6.00;6.00;;;;;17.68;63.97;99701.91;5116699;28;8840;-62
2022/07/26 05:48:04;;;;;;;;;6.20;6.20;;;;;17.75;63.86;99702.91;5117025;28;8824;-62
2022/07/26 05:50:31;;;;;;;;;3.20;3.20;;;;;17.81;63.55;99701.38;5116856;28;8924;-62
2022/07/26 05:52:59;;;;;;;;;4.00;4.00;;;;;17.89;63.50;99704.03;5117534;28;8970;-62
2022/07/26 05:55:27;;;;;;;;;4.40;4.00;;;;;17.96;63.48;99700.47;5116932;28;8819;-63
2022/07/26 05:57:55;;;;;;;;;6.60;6.60;;;;;18.03;63.54;99698.75;5116960;28;8950;-63
2022/07/26 06:00:23;;;;;;;;;7.80;6.60;;;;;18.09;63.60;99703.47;5117052;28;8847;-62
2022/07/26 06:02:50;;;;;;;;;6.00;6.00;;;;;18.15;63.18;99704.59;5117160;28;8969;-62
2022/07/26 06:05:18;;;;;;;;;5.20;5.20;;;;;18.21;63.36;99712.81;5116220;28;8840;-62
2022/07/26 06:07:46;;;;;;;;;6.40;6.00;;;;;18.24;63.20;99706.25;5116979;28;8823;-62
2022/07/26 06:10:14;;;;;;;;;5.60;5.20;;;;;18.31;63.35;99713.50;5116786;28;8942;-63
2022/07/26 06:12:42;;;;;;;;;8.60;7.20;;;;;18.39;63.13;99710.75;5111465;28;8872;-62
2022/07/26 06:15:09;;;;;;;;;6.60;6.60;;;;;18.46;63.10;99711.72;5117534;28;8836;-62
2022/07/26 06:17:42;;;;;;;;;7.40;7.40;;;;;18.55;62.94;99709.78;5116880;28;8844;-62
2022/07/26 06:20:10;;;;;;;;;9.80;7.40;;;;;18.63;62.41;99710.59;5116736;28;9508;-62
2022/07/26 06:22:38;;;;;;;;;6.00;4.00;;;;;18.74;62.05;99712.88;5116979;28;9666;-66
2022/07/26 06:25:06;;;;;;;;;7.80;6.60;;;;;18.86;62.08;99711.44;5116658;28;8828;-62
2022/07/26 06:27:34;;;;;;;;;6.00;6.00;;;;;18.94;61.93;99721.31;5116333;28;8966;-62
2022/07/26 06:30:01;;;;;;;;;6.20;6.20;;;;;19.00;62.28;99712.50;5116097;28;8856;-63
2022/07/26 06:32:30;;;;;;;;;6.80;6.00;;;;;19.07;61.79;99714.31;5128971;27;8834;-62
2022/07/26 06:34:57;;;;;;;;;9.60;8.20;;;;;19.11;61.95;99714.78;5137215;27;8842;-63
2022/07/26 06:37:25;;;;;;;;;7.00;7.00;;;;;19.14;62.22;99720.66;5137206;27;8846;-63
2022/07/26 06:39:53;;;;;;;;;9.00;7.00;;;;;19.14;62.54;99712.56;5136562;27;8826;-62
2022/07/26 06:42:21;;;;;;;;;9.00;9.00;;;;;19.15;62.56;99722.34;5135565;27;8825;-62
2022/07/26 06:44:49;;;;;;;;;10.00;10.00;;;;;19.19;63.02;99726.38;5115460;28;8856;-62
2022/07/26 06:47:17;;;;;;;;;10.00;9.00;;;;;19.20;62.82;99716.44;5115254;28;8847;-63
2022/07/26 06:49:44;;;;;;;;;6.00;4.80;;;;;19.23;62.59;99725.00;5096710;28;8928;-62
2022/07/26 06:52:12;;;;;;;;;9.80;9.00;;;;;19.27;62.84;99726.31;5115690;28;8820;-62
2022/07/26 06:54:40;;;;;;;;;11.00;10.00;;;;;19.30;62.86;99730.50;5125429;27;8953;-66
2022/07/26 06:57:08;;;;;;;;;11.00;9.60;;;;;19.29;63.05;99724.28;5119217;27;8823;-63
2022/07/26 06:59:36;;;;;;;;;12.40;9.60;;;;;19.35;63.07;99728.09;5131190;27;8834;-66
2022/07/26 07:02:03;;;;;;;;;11.20;9.80;;;;;19.41;62.64;99739.00;5115948;28;8850;-63
2022/07/26 07:04:31;;;;;;;;;10.60;10.20;;;;;19.45;62.90;99739.47;5115922;28;8820;-62
2022/07/26 07:07:01;;;;;;;;;13.80;11.20;;;;;19.46;62.80;99742.00;5115544;28;8928;-62
2022/07/26 07:09:32;;;;;;;;;12.00;12.00;;;;;19.43;63.06;99741.53;5114560;28;8862;-62
2022/07/26 07:12:01;;;;;;;;;14.20;12.60;;;;;19.46;63.40;99736.59;5114745;28;8831;-62
2022/07/26 07:14:36;;;;;;;;;10.00;9.80;;;;;19.49;63.61;99733.53;5115563;28;8840;-63
2022/07/26 07:17:05;;;;;;;;;16.60;14.00;;;;;19.55;63.20;99735.50;5115205;28;8990;-63
2022/07/26 07:19:40;;;;;;;;;14.40;12.60;;;;;19.72;62.40;99734.31;5114980;28;8962;-62
2022/07/26 07:22:10;;;;;;;;;16.40;15.60;;;;;19.91;62.20;99741.03;5115363;28;8908;-62
2022/07/26 07:24:39;;;;;;;;;19.80;17.80;;;;;20.13;62.01;99734.72;5115762;28;8850;-62
2022/07/26 07:27:06;;;;;;;;;21.60;19.40;;;;;20.25;61.30;99742.16;5115453;28;8971;-61
2022/07/26 07:29:34;;;;;;;;;17.20;15.40;;;;;20.42;61.60;99740.94;5115208;28;8844;-62
2022/07/26 07:32:02;;;;;;;;;19.80;17.20;;;;;20.52;61.69;99737.91;5134721;27;8834;-62
2022/07/26 07:34:30;;;;;;;;;12.20;11.00;;;;;20.62;61.39;99742.00;5134712;27;8837;-62
2022/07/26 07:36:59;;;;;;;;;19.40;16.40;;;;;20.70;61.34;99750.00;5134701;27;8830;-61
2022/07/26 07:39:27;;;;;;;;;15.60;15.60;;;;;20.72;61.21;99747.97;5128061;27;8820;-62
2022/07/26 07:42:05;;;;;;;;;13.60;12.20;;;;;20.76;61.01;99741.13;5114133;28;8844;-62
2022/07/26 07:44:33;;;;;;;;;20.00;18.60;;;;;20.84;61.34;99751.81;5114374;28;8839;-61
2022/07/26 07:47:01;;;;;;;;;12.80;10.80;;;;;20.92;61.18;99758.00;5114594;28;8835;-62
2022/07/26 07:49:29;;;;;;;;;15.20;14.00;;;;;21.01;60.57;99756.00;5114759;28;9481;-62
2022/07/26 07:51:57;;;;;;;;;22.00;19.80;;;;;21.08;60.91;99765.88;5114738;28;8824;-62
2022/07/26 07:54:25;;;;;;;;;17.40;13.20;;;;;21.15;60.82;99755.09;5114368;28;8867;-63
2022/07/26 07:56:55;;;;;;;;;14.00;12.80;;;;;21.23;60.28;99754.97;5112940;28;8828;-62
2022/07/26 07:59:23;;;;;;;;;17.80;16.80;;;;;21.30;60.21;99753.16;5112861;28;8916;-62
2022/07/26 08:01:50;;;;;;;;;16.20;15.40;;;;;21.31;60.49;99763.81;5131061;27;8821;-61
2022/07/26 08:04:18;;;;;;;;;19.40;17.80;;;;;21.41;59.91;99767.00;5134248;27;8862;-63
2022/07/26 08:06:46;;;;;;;;;14.60;13.60;;;;;21.43;60.34;99764.13;5133973;27;8845;-61
2022/07/26 08:09:17;;;;;;;;;19.00;17.80;;;;;21.50;60.04;99765.00;5133977;27;8837;-62
2022/07/26 08:11:45;;;;;;;;;14.40;13.60;;;;;21.59;59.90;99774.69;5135074;27;8845;-61
2022/07/26 08:14:17;;;;;;;;;20.40;18.00;;;;;21.55;59.90;99768.00;5124139;28;8871;-62
2022/07/26 08:16:46;;;;;;;;;18.20;16.60;;;;;21.62;60.13;99766.13;5113828;28;8920;-65
2022/07/26 08:19:14;;;;;;;;;16.00;15.60;;;;;21.61;60.31;99764.47;5113935;28;8832;-62
2022/07/26 08:21:44;;;;;;;;;17.20;15.00;;;;;21.62;60.64;99763.44;5113503;28;8840;-62
2022/07/26 08:24:13;;;;;;;;;16.60;14.80;;;;;21.69;59.90;99764.34;5113744;28;8850;-61
2022/07/26 08:26:41;;;;;;;;;22.80;18.80;;;;;21.77;59.87;99765.06;5114274;28;8945;-62
2022/07/26 08:29:09;;;;;;;;;17.80;16.80;;;;;21.78;60.21;99763.19;5128719;27;8874;-62
2022/07/26 08:31:51;;;;;;;;;18.20;16.60;;;;;21.76;59.84;99762.53;5138352;27;8861;-63
2022/07/26 08:34:20;;;;;;;;;18.60;16.40;;;;;21.83;59.61;99768.84;5118924;28;8844;-62
2022/07/26 08:36:48;;;;;;;;;17.00;14.40;;;;;21.98;59.34;99765.00;5118313;28;8863;-62
2022/07/26 08:39:36;;;;;;;;;12.80;12.00;;;;;22.20;59.20;99768.44;5117939;28;8840;-62
2022/07/26 08:42:04;;;;;;;;;15.80;14.40;;;;;22.35;58.35;99764.59;5118309;28;8966;-62
2022/07/26 08:44:32;;;;;;;;;21.00;17.00;;;;;22.48;58.81;99764.66;5117582;28;9635;-62
2022/07/26 08:47:00;;;;;;;;;17.80;15.40;;;;;22.62;58.54;99766.38;5118074;28;8860;-62
2022/07/26 08:49:28;;;;;;;;;15.60;15.00;;;;;22.75;58.12;99769.16;5118146;28;8828;-62
2022/07/26 08:51:57;;;;;;;;;14.00;13.40;;;;;22.80;58.12;99771.25;5117991;28;8904;-64
2022/07/26 08:54:26;;;;;;;;;19.20;15.40;;;;;22.93;57.77;99768.59;5117953;28;8920;-62
2022/07/26 08:56:54;;;;;;;;;16.60;15.80;;;;;23.07;57.07;99767.59;5117932;28;8862;-62
2022/07/26 08:59:22;;;;;;;;;16.20;15.40;;;;;23.32;56.90;99760.53;5102483;28;8947;-61
2022/07/26 09:01:50;;;;;;;;;15.40;15.00;;;;;23.60;56.07;99761.19;5097353;28;8914;-61
2022/07/26 09:04:19;;;;;;;;;16.40;14.80;;;;;23.60;56.71;99772.06;5097587;28;8861;-62
2022/07/26 09:06:58;;;;;;;;;11.40;10.60;;;;;23.51;56.75;99773.31;5096934;28;8968;-62
2022/07/26 09:09:26;;;;;;;;;13.60;12.20;;;;;23.65;56.29;99772.25;5097492;28;8907;-63
2022/07/26 09:11:55;;;;;;;;;11.00;8.80;;;;;23.72;56.09;99768.50;5097373;28;9551;-63
2022/07/26 09:14:22;;;;;;;;;10.40;10.00;;;;;23.79;55.92;99768.47;5097160;28;8860;-62
2022/07/26 09:16:50;;;;;;;;;13.40;12.80;;;;;23.90;55.55;99762.47;5097460;28;8849;-62
2022/07/26 09:19:18;;;;;;;;;12.40;11.80;;;;;23.89;55.74;99772.50;5097179;28;8834;-62
2022/07/26 09:21:46;;;;;;;;;13.40;12.80;;;;;23.84;55.80;99779.59;5096923;28;8853;-61
2022/07/26 09:24:14;;;;;;;;;12.00;10.40;;;;;23.88;55.46;99770.81;5097125;28;8962;-62
2022/07/26 09:26:41;;;;;;;;;8.00;6.60;;;;;24.06;55.01;99781.06;5097391;28;8849;-62
2022/07/26 09:29:09;;;;;;;;;14.00;13.00;;;;;24.08;55.05;99784.38;5108995;28;8958;-62
2022/07/26 09:31:37;;;;;;;;;9.00;8.80;;;;;24.24;54.47;99783.94;5117795;28;8978;-61
2022/07/26 09:34:05;;;;;;;;;12.00;12.00;;;;;24.27;54.73;99778.91;5137355;27;8964;-63
2022/07/26 09:36:34;;;;;;;;;11.60;11.20;;;;;24.35;54.39;99765.06;5138038;27;8852;-62
2022/07/26 09:39:02;;;;;;;;;10.40;10.00;;;;;24.41;53.90;99782.44;5138246;27;8918;-63
2022/07/26 09:41:29;;;;;;;;;10.80;10.80;;;;;24.38;54.06;99780.13;5137235;27;8833;-62
2022/07/26 09:43:59;;;;;;;;;9.20;9.00;;;;;24.21;54.37;99784.38;5138553;27;8822;-63
2022/07/26 09:46:27;;;;;;;;;9.00;9.00;;;;;23.91;54.94;99784.00;5138408;27;8906;-62
2022/07/26 09:48:55;;;;;;;;;10.60;9.60;;;;;23.68;55.20;99797.16;5137929;27;9525;-62
2022/07/26 09:51:39;;;;;;;;;11.80;11.80;;;;;23.42;56.27;99801.72;5137748;27;8837;-62
2022/07/26 09:54:08;;;;;;;;;10.80;10.00;;;;;23.25;56.15;99795.03;5138326;27;8930;-62
2022/07/26 09:56:36;;;;;;;;;16.00;13.40;;;;;23.16;56.16;99793.56;5138329;27;8837;-61
2022/07/26 09:59:04;;;;;;;;;12.80;12.00;;;;;23.14;56.24;99791.00;5122123;27;8888;-62
2022/07/26 10:01:32;;;;;;;;;13.00;12.00;;;;;23.19;56.50;99798.56;5117098;28;8820;-62
2022/07/26 10:03:59;;;;;;;;;15.40;14.40;;;;;23.21;56.15;99797.31;5116939;28;8816;-62
2022/07/26 10:06:27;;;;;;;;;15.60;13.40;;;;;23.20;55.96;99801.09;5116222;28;8920;-62
2022/07/26 10:08:57;;;;;;;;;13.40;13.40;;;;;23.11;56.22;99801.44;5116079;28;8851;-62
2022/07/26 10:11:25;;;;;;;;;13.00;12.60;;;;;23.09;56.61;99798.09;5116411;28;8839;-61
2022/07/26 10:13:52;;;;;;;;;10.40;10.40;;;;;23.31;55.72;99792.31;5116047;28;9634;-62
2022/07/26 10:16:21;;;;;;;;;14.20;13.80;;;;;24.08;54.42;99796.13;5116094;28;9522;-62
2022/07/26 10:18:49;;;;;;;;;13.60;13.00;;;;;24.75;53.18;99796.59;5115841;28;8916;-61
2022/07/26 10:21:17;;;;;;;;;11.40;10.20;;;;;24.76;52.32;99800.97;5115613;28;8916;-62
2022/07/26 10:23:45;;;;;;;;;11.40;11.40;;;;;24.94;52.41;99808.47;5115880;28;8843;-61
2022/07/26 10:26:13;;;;;;;;;11.80;11.40;;;;;25.25;51.85;99805.81;5115615;28;8827;-61
2022/07/26 10:28:41;;;;;;;;;12.40;11.80;;;;;25.29;51.82;99813.31;5124852;27;8834;-62
2022/07/26 10:31:09;;;;;;;;;12.40;12.00;;;;;25.24;51.66;99821.31;5135812;27;8906;-65
2022/07/26 10:33:37;;;;;;;;;13.00;11.20;;;;;25.00;51.56;99818.47;5135881;27;8830;-61
2022/07/26 10:36:05;;;;;;;;;13.60;13.60;;;;;24.67;52.01;99817.78;5136002;27;8841;-62
2022/07/26 10:38:33;;;;;;;;;14.60;12.60;;;;;24.44;53.02;99822.84;5135179;27;8976;-62
2022/07/26 10:41:00;;;;;;;;;13.00;13.00;;;;;24.27;53.07;99818.91;5136245;27;8817;-61
2022/07/26 10:43:28;;;;;;;;;13.40;13.40;;;;;24.13;53.33;99818.09;5136477;27;8841;-62
2022/07/26 10:46:07;;;;;;;;;14.40;14.00;;;;;23.99;53.22;99818.31;5136444;27;8825;-61
2022/07/26 10:48:35;;;;;;;;;11.20;10.20;;;;;23.92;54.02;99817.50;5135521;27;8921;-61
2022/07/26 10:51:03;;;;;;;;;13.60;13.00;;;;;23.90;53.57;99817.69;5135254;27;8841;-62
2022/07/26 10:53:32;;;;;;;;;11.00;10.60;;;;;23.91;53.63;99826.69;5135562;27;8937;-61
2022/07/26 10:56:01;;;;;;;;;13.00;11.20;;;;;24.05;53.10;99831.09;5136194;27;9629;-62
2022/07/26 10:58:30;;;;;;;;;13.20;12.80;;;;;24.84;51.82;99824.41;5122524;27;8828;-62
2022/07/26 11:00:58;;;;;;;;;14.00;13.20;;;;;25.86;49.56;99822.13;5115435;28;8870;-63
2022/07/26 11:03:26;;;;;;;;;14.20;14.00;;;;;26.99;48.16;99816.97;5114873;28;8923;-63
2022/07/26 11:05:54;;;;;;;;;14.00;14.00;;;;;27.90;46.31;99826.59;5115546;28;8836;-63
2022/07/26 11:08:23;;;;;;;;;12.80;12.60;;;;;28.42;44.93;99820.19;5114597;28;8839;-64
2022/07/26 11:10:51;;;;;;;;;14.00;13.60;;;;;28.57;44.75;99820.53;5115260;28;8847;-64
2022/07/26 11:13:18;;;;;;;;;16.40;16.20;;;;;28.58;45.05;99821.34;5114969;28;8828;-63
2022/07/26 11:15:46;;;;;;;;;18.80;17.80;;;;;28.34;45.54;99825.16;5114710;28;8990;-62
2022/07/26 11:18:14;;;;;;;;;16.60;16.00;;;;;27.84;46.58;99833.00;5114886;28;8847;-62
2022/07/26 11:20:42;;;;;;;;;9.00;8.80;;;;;27.21;47.13;99840.03;5115172;28;8870;-63
2022/07/26 11:23:10;;;;;;;;;4.40;4.00;;;;;26.46;49.26;99856.88;5115063;28;9599;-62
2022/07/26 11:25:38;;;;;;;;;3.80;3.80;;;;;25.67;50.07;99850.38;5115702;28;8853;-62
2022/07/26 11:28:06;;;;;;;;;5.00;5.00;;;;;24.97;51.78;99867.97;5124268;27;8914;-62
2022/07/26 11:30:34;;;;;;;;;2.40;2.40;;;;;24.40;52.88;99857.00;5136071;27;8849;-62
2022/07/26 11:33:04;;;;;;;;;3.00;3.00;;;;;23.92;54.02;99870.03;5136094;27;9626;-61
2022/07/26 11:35:31;;;;;;;;;1.40;1.40;;;;;23.53;54.84;99872.66;5136414;27;8909;-64
2022/07/26 11:38:00;;;;;;;;;1.00;1.00;;;;;23.20;55.00;99877.19;5135006;27;9583;-61
2022/07/26 11:40:38;;;;;;;;;1.80;1.80;;;;;22.93;56.25;99888.13;5135322;27;8864;-62
2022/07/26 11:43:06;;;;;;;;;5.80;4.60;;;;;22.71;56.21;99884.69;5135062;27;8829;-62